Terminal Aerodrome Forecast
Issued by NWS

Home | Current Version | Previous Version | Text Only | Print | Product List | Glossary On
Versions: 1 2 3 4 5 6 7 8 9 10 11 12 13 14 15 16
000
FTUS45 KABQ 252335
TAFGUP
TAF
KGUP 252335Z 2600/2624 24010G16KT P6SM VCSH SCT060 BKN120
     FM260200 23007KT P6SM SCT060 BKN120
     FM261200 23008KT P6SM SCT040
     FM262000 27008KT P6SM SCT080=

USA.gov is the U.S. government's official web portal to all federal, state and local government web resources and services.